Millenium Air

Millenium Air Since 1998



 METAR AND TAF INFORMATION
METAR FOR EYVI
ADDS - METARS form results

(0540 UTC 18 April 2021)
Data provider http://aviationweather.gov/metar/data/
 
METAR text: EYVI 180520Z 36006KT CAVOK 08/04 Q1019 NOSIG
Conditions at: EYVI (VILNIUS INTL , LT) observed 0520 UTC 18 April 2021
Temperature: 8.0°C (46°F)
Dewpoint: 4.0°C (39°F) [RH = 76%]
Pressure (altimeter): 30.09 inches Hg (1019.0 mb)
Winds: from the N (360 degrees) at 7 MPH (6 knots; 3.1 m/s)
Visibility: 6 or more miles (10+ km)
Ceiling: ceiling and visibility are OK
Clouds: unknown
Weather: no significant weather observed at this time

METAR text: EYVI 180450Z 01006KT CAVOK 07/04 Q1019 NOSIG
Conditions at: EYVI (VILNIUS INTL , LT) observed 0450 UTC 18 April 2021
Temperature: 7.0°C (45°F)
Dewpoint: 4.0°C (39°F) [RH = 81%]
Pressure (altimeter): 30.09 inches Hg (1019.0 mb)
Winds: from the N (10 degrees) at 7 MPH (6 knots; 3.1 m/s)
Visibility: 6 or more miles (10+ km)
Ceiling: ceiling and visibility are OK
Clouds: unknown
Weather: no significant weather observed at this time

Forecast for: EYVI (VILNIUS INTL , LT)
Text: TAF EYVI 180500Z 1806/1906 04006KT 9000 NSC
Forecast period: 0600 UTC 18 April 2021 to 0600 UTC 19 April 2021
Forecast type: FROM: standard forecast or significant change
Winds: from the NE (40 degrees) at 7 MPH (6 knots; 3.1 m/s)
Visibility: 6 miles (9 km)
Ceiling: unknown
Clouds: missing
Weather: no significant weather forecast for this period
Text: TEMPO 1808/1812 SCT045
Forecast period: 0800 to 1200 UTC 18 April 2021
Forecast type: TEMPORARY: The following changes expected for less than half the time period
Visibility: missing
Ceiling: at least 12,000 feet AGL
Clouds: scattered clouds at 4500 feet AGL
Weather: no significant weather forecast for this period

 AIRPORT MAP

 RUNWAY INFORMATION
Runway 02 Runway length 8251 ft Runway width 164 ft
Runway elevation 594 ft Runway displaced threshold 0 ft Runway heading 22
Runway 20 Runway length 8251 ft Runway width 164 ft
Runway elevation 646 ft Runway displaced threshold 0 ft Runway heading 202

 AIRPORT FREQUENCIES
Type APP Name APP Frequency 120.7 MHZ
Type ATIS Name ATIS Frequency 125.8 MHZ
Type TWR Name TWR Frequency 118.2 MHZ

 AIRPORT NEAR NAVIGATION AIDS
Type NDB Name Vilnius Frequency 385 KHZ
Type VOR-DME Name Vilnius Frequency 113800 KHZ